sensor_id;sensor_type;location;lat;lon;timestamp;pressure;altitude;pressure_sealevel;temperature;humidity
74529;BME280;63009;52.584;5.932;2022-10-14T00:01:22;101707.59;;;10.09;97.72
74529;BME280;63009;52.584;5.932;2022-10-14T00:03:48;101713.78;;;10.08;97.36
74529;BME280;63009;52.584;5.932;2022-10-14T00:06:22;101703.59;;;9.99;97.34
74529;BME280;63009;52.584;5.932;2022-10-14T00:08:47;101706.31;;;9.97;97.49
74529;BME280;63009;52.584;5.932;2022-10-14T00:11:16;101712.59;;;9.95;96.90
74529;BME280;63009;52.584;5.932;2022-10-14T00:13:42;101698.72;;;9.90;97.06
74529;BME280;63009;52.584;5.932;2022-10-14T00:16:15;101699.59;;;9.90;97.04
74529;BME280;63009;52.584;5.932;2022-10-14T00:18:41;101687.38;;;9.88;96.43
74529;BME280;63009;52.584;5.932;2022-10-14T00:21:06;101687.53;;;9.83;96.77
74529;BME280;63009;52.584;5.932;2022-10-14T00:23:31;101686.75;;;9.81;96.89
74529;BME280;63009;52.584;5.932;2022-10-14T00:25:57;101683.31;;;9.79;96.71
74529;BME280;63009;52.584;5.932;2022-10-14T00:28:22;101681.75;;;9.75;97.15
74529;BME280;63009;52.584;5.932;2022-10-14T00:31:00;101677.50;;;9.71;97.05
74529;BME280;63009;52.584;5.932;2022-10-14T00:33:26;101681.13;;;9.68;97.40
74529;BME280;63009;52.584;5.932;2022-10-14T00:36:00;101689.09;;;9.67;97.56
74529;BME280;63009;52.584;5.932;2022-10-14T00:38:27;101674.25;;;9.64;97.64
74529;BME280;63009;52.584;5.932;2022-10-14T00:40:53;101669.25;;;9.58;97.88
74529;BME280;63009;52.584;5.932;2022-10-14T00:43:19;101662.25;;;9.57;97.59
74529;BME280;63009;52.584;5.932;2022-10-14T00:45:44;101662.34;;;9.54;97.92
74529;BME280;63009;52.584;5.932;2022-10-14T00:48:10;101658.94;;;9.52;98.23
74529;BME280;63009;52.584;5.932;2022-10-14T00:50:41;101652.00;;;9.49;98.30
74529;BME280;63009;52.584;5.932;2022-10-14T00:53:07;101659.66;;;9.56;98.56
74529;BME280;63009;52.584;5.932;2022-10-14T00:55:37;101655.34;;;9.53;98.45
74529;BME280;63009;52.584;5.932;2022-10-14T00:58:03;101669.28;;;9.57;98.50
74529;BME280;63009;52.584;5.932;2022-10-14T01:00:28;101662.25;;;9.57;98.64
74529;BME280;63009;52.584;5.932;2022-10-14T01:02:55;101662.25;;;9.57;98.48
74529;BME280;63009;52.584;5.932;2022-10-14T01:05:21;101668.41;;;9.56;98.93
74529;BME280;63009;52.584;5.932;2022-10-14T01:16:01;101652.50;;;9.59;99.19
74529;BME280;63009;52.584;5.932;2022-10-14T01:18:39;101637.75;;;9.53;99.34
74529;BME280;63009;52.584;5.932;2022-10-14T01:21:10;101652.34;;;9.62;99.87
74529;BME280;63009;52.584;5.932;2022-10-14T01:23:46;101658.50;;;9.63;99.58
74529;BME280;63009;52.584;5.932;2022-10-14T01:32:00;101640.38;;;9.75;100.00
74529;BME280;63009;52.584;5.932;2022-10-14T01:34:31;101640.50;;;9.72;100.00
74529;BME280;63009;52.584;5.932;2022-10-14T01:37:04;101639.63;;;9.72;100.00
74529;BME280;63009;52.584;5.932;2022-10-14T01:39:40;101644.84;;;9.73;100.00
74529;BME280;63009;52.584;5.932;2022-10-14T01:42:10;101638.88;;;9.68;100.00
74529;BME280;63009;52.584;5.932;2022-10-14T01:44:41;101639.63;;;9.72;100.00
74529;BME280;63009;52.584;5.932;2022-10-14T01:47:09;101641.59;;;9.67;99.91
74529;BME280;63009;52.584;5.932;2022-10-14T01:49:41;101625.41;;;9.54;99.67
74529;BME280;63009;52.584;5.932;2022-10-14T01:52:12;101628.97;;;9.53;99.78
74529;BME280;63009;52.584;5.932;2022-10-14T01:54:40;101621.31;;;9.47;99.72
74529;BME280;63009;52.584;5.932;2022-10-14T01:57:10;101626.47;;;9.50;99.59
74529;BME280;63009;52.584;5.932;2022-10-14T01:59:39;101633.41;;;9.52;99.58
74529;BME280;63009;52.584;5.932;2022-10-14T02:02:05;101622.19;;;9.47;99.33
74529;BME280;63009;52.584;5.932;2022-10-14T02:04:30;101621.31;;;9.47;99.62
74529;BME280;63009;52.584;5.932;2022-10-14T02:07:05;101636.03;;;9.52;99.38
74529;BME280;63009;52.584;5.932;2022-10-14T02:09:47;101643.94;;;9.52;99.56
74529;BME280;63009;52.584;5.932;2022-10-14T02:13:19;101637.44;;;9.61;99.46
74529;BME280;63009;52.584;5.932;2022-10-14T02:18:25;101639.78;;;9.47;99.27
74529;BME280;63009;52.584;5.932;2022-10-14T02:21:33;101651.13;;;9.49;99.73
74529;BME280;63009;52.584;5.932;2022-10-14T02:24:06;101660.72;;;9.51;99.70
74529;BME280;63009;52.584;5.932;2022-10-14T02:26:34;101652.97;;;9.47;99.53
74529;BME280;63009;52.584;5.932;2022-10-14T02:29:02;101641.81;;;9.40;99.68
74529;BME280;63009;52.584;5.932;2022-10-14T02:31:29;101653.66;;;9.52;99.52
74529;BME280;63009;52.584;5.932;2022-10-14T02:33:58;101647.88;;;9.42;99.74
74529;BME280;63009;52.584;5.932;2022-10-14T02:36:26;101640.03;;;9.41;99.81
74529;BME280;63009;52.584;5.932;2022-10-14T02:38:55;101645.25;;;9.42;99.68
74529;BME280;63009;52.584;5.932;2022-10-14T02:41:24;101653.13;;;9.44;99.73
74529;BME280;63009;52.584;5.932;2022-10-14T02:43:51;101653.84;;;9.47;99.90
74529;BME280;63009;52.584;5.932;2022-10-14T02:46:19;101637.22;;;9.45;99.86
74529;BME280;63009;52.584;5.932;2022-10-14T02:48:45;101639.00;;;9.45;99.88
74529;BME280;63009;52.584;5.932;2022-10-14T02:51:10;101643.28;;;9.47;100.00
74529;BME280;63009;52.584;5.932;2022-10-14T02:53:36;101640.66;;;9.47;100.00
74529;BME280;63009;52.584;5.932;2022-10-14T02:56:01;101644.09;;;9.49;100.00
74529;BME280;63009;52.584;5.932;2022-10-14T02:58:26;101633.47;;;9.51;100.00
74529;BME280;63009;52.584;5.932;2022-10-14T03:00:51;101630.81;;;9.51;100.00
74529;BME280;63009;52.584;5.932;2022-10-14T03:03:17;101624.63;;;9.52;100.00
74529;BME280;63009;52.584;5.932;2022-10-14T03:05:42;101606.34;;;9.47;99.90
74529;BME280;63009;52.584;5.932;2022-10-14T03:08:07;101604.50;;;9.49;100.00
74529;BME280;63009;52.584;5.932;2022-10-14T03:10:33;101603.66;;;9.49;100.00
74529;BME280;63009;52.584;5.932;2022-10-14T03:12:58;101598.28;;;9.50;100.00
74529;BME280;63009;52.584;5.932;2022-10-14T03:15:23;101592.22;;;9.48;100.00
74529;BME280;63009;52.584;5.932;2022-10-14T03:17:48;101591.44;;;9.46;100.00
74529;BME280;63009;52.584;5.932;2022-10-14T03:20:14;101592.16;;;9.50;100.00
74529;BME280;63009;52.584;5.932;2022-10-14T03:22:39;101583.47;;;9.48;100.00
74529;BME280;63009;52.584;5.932;2022-10-14T03:25:05;101581.75;;;9.47;100.00
74529;BME280;63009;52.584;5.932;2022-10-14T03:27:30;101585.03;;;9.52;100.00
74529;BME280;63009;52.584;5.932;2022-10-14T03:29:56;101571.78;;;9.53;100.00
74529;BME280;63009;52.584;5.932;2022-10-14T03:32:21;101562.22;;;9.51;100.00
74529;BME280;63009;52.584;5.932;2022-10-14T03:34:46;101549.94;;;9.50;100.00
74529;BME280;63009;52.584;5.932;2022-10-14T03:37:12;101571.84;;;9.52;100.00
74529;BME280;63009;52.584;5.932;2022-10-14T03:39:37;101570.19;;;9.49;100.00
74529;BME280;63009;52.584;5.932;2022-10-14T03:42:02;101579.69;;;9.53;100.00
74529;BME280;63009;52.584;5.932;2022-10-14T03:44:27;101580.63;;;9.52;100.00
74529;BME280;63009;52.584;5.932;2022-10-14T03:46:53;101586.69;;;9.55;100.00
74529;BME280;63009;52.584;5.932;2022-10-14T03:49:18;101571.78;;;9.53;100.00
74529;BME280;63009;52.584;5.932;2022-10-14T03:51:43;101569.34;;;9.49;100.00
74529;BME280;63009;52.584;5.932;2022-10-14T03:54:09;101566.78;;;9.47;100.00
74529;BME280;63009;52.584;5.932;2022-10-14T03:56:34;101570.41;;;9.45;100.00
74529;BME280;63009;52.584;5.932;2022-10-14T03:58:59;101566.84;;;9.46;100.00
74529;BME280;63009;52.584;5.932;2022-10-14T04:01:24;101557.22;;;9.45;100.00
74529;BME280;63009;52.584;5.932;2022-10-14T04:03:50;101555.44;;;9.45;100.00
74529;BME280;63009;52.584;5.932;2022-10-14T04:06:16;101547.44;;;9.47;100.00
74529;BME280;63009;52.584;5.932;2022-10-14T04:08:42;101554.38;;;9.49;100.00
74529;BME280;63009;52.584;5.932;2022-10-14T04:11:08;101547.00;;;9.58;100.00
74529;BME280;63009;52.584;5.932;2022-10-14T04:13:33;101553.16;;;9.57;100.00
74529;BME280;63009;52.584;5.932;2022-10-14T04:16:04;101557.41;;;9.61;100.00
74529;BME280;63009;52.584;5.932;2022-10-14T04:18:29;101539.00;;;9.59;100.00
74529;BME280;63009;52.584;5.932;2022-10-14T04:20:58;101531.94;;;9.60;100.00
74529;BME280;63009;52.584;5.932;2022-10-14T04:23:24;101542.69;;;9.55;100.00
74529;BME280;63009;52.584;5.932;2022-10-14T04:25:49;101549.88;;;9.51;100.00
74529;BME280;63009;52.584;5.932;2022-10-14T04:28:14;101550.72;;;9.52;100.00
74529;BME280;63009;52.584;5.932;2022-10-14T04:30:40;101561.97;;;9.57;100.00
74529;BME280;63009;52.584;5.932;2022-10-14T04:33:06;101550.59;;;9.55;100.00
74529;BME280;63009;52.584;5.932;2022-10-14T04:35:31;101547.88;;;9.57;100.00
74529;BME280;63009;52.584;5.932;2022-10-14T04:37:57;101549.81;;;9.53;100.00
74529;BME280;63009;52.584;5.932;2022-10-14T04:40:22;101542.81;;;9.52;100.00
74529;BME280;63009;52.584;5.932;2022-10-14T04:42:53;101539.06;;;9.58;100.00
74529;BME280;63009;52.584;5.932;2022-10-14T04:45:19;101537.47;;;9.53;100.00
74529;BME280;63009;52.584;5.932;2022-10-14T04:47:44;101536.44;;;9.58;100.00
74529;BME280;63009;52.584;5.932;2022-10-14T04:50:09;101532.94;;;9.57;100.00
74529;BME280;63009;52.584;5.932;2022-10-14T04:52:35;101529.41;;;9.57;100.00
74529;BME280;63009;52.584;5.932;2022-10-14T04:55:00;101546.06;;;9.59;100.00
74529;BME280;63009;52.584;5.932;2022-10-14T04:57:27;101536.47;;;9.56;100.00
74529;BME280;63009;52.584;5.932;2022-10-14T04:59:52;101532.13;;;9.55;100.00
74529;BME280;63009;52.584;5.932;2022-10-14T05:02:18;101533.72;;;9.59;100.00
74529;BME280;63009;52.584;5.932;2022-10-14T05:04:43;101531.16;;;9.58;100.00
74529;BME280;63009;52.584;5.932;2022-10-14T05:07:08;101531.88;;;9.61;100.00
74529;BME280;63009;52.584;5.932;2022-10-14T05:09:34;101521.25;;;9.63;100.00
74529;BME280;63009;52.584;5.932;2022-10-14T05:11:59;101517.75;;;9.62;100.00
74529;BME280;63009;52.584;5.932;2022-10-14T05:14:24;101512.41;;;9.64;100.00
74529;BME280;63009;52.584;5.932;2022-10-14T05:16:49;101512.53;;;9.61;100.00
74529;BME280;63009;52.584;5.932;2022-10-14T05:19:15;101514.19;;;9.63;100.00
74529;BME280;63009;52.584;5.932;2022-10-14T05:21:40;101495.72;;;9.63;100.00
74529;BME280;63009;52.584;5.932;2022-10-14T05:24:06;101485.31;;;9.60;100.00
74529;BME280;63009;52.584;5.932;2022-10-14T05:26:31;101485.22;;;9.62;100.00
74529;BME280;63009;52.584;5.932;2022-10-14T05:28:57;101482.53;;;9.63;100.00
74529;BME280;63009;52.584;5.932;2022-10-14T05:31:22;101471.97;;;9.63;100.00
74529;BME280;63009;52.584;5.932;2022-10-14T05:33:47;101488.38;;;9.70;100.00
74529;BME280;63009;52.584;5.932;2022-10-14T05:36:13;101483.31;;;9.65;100.00
74529;BME280;63009;52.584;5.932;2022-10-14T05:38:38;101476.09;;;9.69;100.00
74529;BME280;63009;52.584;5.932;2022-10-14T05:41:03;101469.03;;;9.69;100.00
74529;BME280;63009;52.584;5.932;2022-10-14T05:43:29;101465.63;;;9.67;100.00
74529;BME280;63009;52.584;5.932;2022-10-14T05:45:54;101455.72;;;9.72;100.00
74529;BME280;63009;52.584;5.932;2022-10-14T05:48:19;101463.44;;;9.77;100.00
74529;BME280;63009;52.584;5.932;2022-10-14T05:50:45;101460.00;;;9.75;100.00
74529;BME280;63009;52.584;5.932;2022-10-14T05:53:10;101453.88;;;9.74;100.00
74529;BME280;63009;52.584;5.932;2022-10-14T05:55:36;101451.09;;;9.77;100.00
74529;BME280;63009;52.584;5.932;2022-10-14T05:58:02;101452.78;;;9.78;100.00
74529;BME280;63009;52.584;5.932;2022-10-14T06:00:27;101461.44;;;9.82;100.00
74529;BME280;63009;52.584;5.932;2022-10-14T06:02:52;101444.59;;;9.85;100.00
74529;BME280;63009;52.584;5.932;2022-10-14T06:05:18;101444.53;;;9.86;100.00
74529;BME280;63009;52.584;5.932;2022-10-14T06:07:43;101441.09;;;9.84;100.00
74529;BME280;63009;52.584;5.932;2022-10-14T06:10:08;101444.47;;;9.88;100.00
74529;BME280;63009;52.584;5.932;2022-10-14T06:12:35;101432.91;;;9.90;100.00
74529;BME280;63009;52.584;5.932;2022-10-14T06:15:00;101429.50;;;9.88;100.00
74529;BME280;63009;52.584;5.932;2022-10-14T06:17:26;101438.13;;;9.92;100.00
74529;BME280;63009;52.584;5.932;2022-10-14T06:19:52;101433.63;;;9.94;100.00
74529;BME280;63009;52.584;5.932;2022-10-14T06:22:17;101429.19;;;9.94;100.00
74529;BME280;63009;52.584;5.932;2022-10-14T06:24:42;101432.50;;;9.99;100.00
74529;BME280;63009;52.584;5.932;2022-10-14T06:27:07;101425.53;;;9.97;100.00
74529;BME280;63009;52.584;5.932;2022-10-14T06:29:33;101435.06;;;10.01;100.00
74529;BME280;63009;52.584;5.932;2022-10-14T06:32:06;101444.63;;;10.03;100.00
74529;BME280;63009;52.584;5.932;2022-10-14T06:34:32;101435.47;;;10.10;100.00
74529;BME280;63009;52.584;5.932;2022-10-14T06:36:58;101439.75;;;10.13;100.00
74529;BME280;63009;52.584;5.932;2022-10-14T06:39:23;101437.06;;;10.15;100.00
74529;BME280;63009;52.584;5.932;2022-10-14T06:41:49;101427.34;;;10.15;100.00
74529;BME280;63009;52.584;5.932;2022-10-14T06:44:14;101423.78;;;10.16;100.00
74529;BME280;63009;52.584;5.932;2022-10-14T06:46:40;101419.28;;;10.18;100.00
74529;BME280;63009;52.584;5.932;2022-10-14T06:49:06;101413.63;;;10.26;100.00
74529;BME280;63009;52.584;5.932;2022-10-14T06:51:32;101415.34;;;10.27;100.00
74529;BME280;63009;52.584;5.932;2022-10-14T06:53:57;101397.78;;;10.26;100.00
74529;BME280;63009;52.584;5.932;2022-10-14T06:56:22;101402.94;;;10.29;100.00
74529;BME280;63009;52.584;5.932;2022-10-14T06:58:52;101413.38;;;10.32;100.00
74529;BME280;63009;52.584;5.932;2022-10-14T07:01:17;101417.41;;;10.39;100.00
74529;BME280;63009;52.584;5.932;2022-10-14T07:03:42;101412.00;;;10.42;100.00
74529;BME280;63009;52.584;5.932;2022-10-14T07:06:08;101407.41;;;10.46;100.00
74529;BME280;63009;52.584;5.932;2022-10-14T07:08:34;101396.75;;;10.47;100.00
74529;BME280;63009;52.584;5.932;2022-10-14T07:10:59;101397.47;;;10.51;100.00
74529;BME280;63009;52.584;5.932;2022-10-14T07:13:24;101396.38;;;10.55;100.00
74529;BME280;63009;52.584;5.932;2022-10-14T07:15:50;101399.75;;;10.58;100.00
74529;BME280;63009;52.584;5.932;2022-10-14T07:18:16;101397.22;;;10.55;100.00
74529;BME280;63009;52.584;5.932;2022-10-14T07:20:42;101398.81;;;10.59;100.00
74529;BME280;63009;52.584;5.932;2022-10-14T07:23:07;101409.13;;;10.64;100.00
74529;BME280;63009;52.584;5.932;2022-10-14T07:25:32;101398.41;;;10.67;100.00
74529;BME280;63009;52.584;5.932;2022-10-14T07:27:58;101400.91;;;10.70;100.00
74529;BME280;63009;52.584;5.932;2022-10-14T07:30:24;101395.69;;;10.68;100.00
74529;BME280;63009;52.584;5.932;2022-10-14T07:32:49;101393.97;;;10.67;100.00
74529;BME280;63009;52.584;5.932;2022-10-14T07:35:15;101402.31;;;10.77;100.00
74529;BME280;63009;52.584;5.932;2022-10-14T07:37:40;101404.88;;;10.79;100.00
74529;BME280;63009;52.584;5.932;2022-10-14T07:40:06;101396.16;;;10.77;100.00
74529;BME280;63009;52.584;5.932;2022-10-14T07:42:31;101404.94;;;10.77;100.00
74529;BME280;63009;52.584;5.932;2022-10-14T07:44:58;101410.06;;;10.80;100.00
74529;BME280;63009;52.584;5.932;2022-10-14T07:47:23;101417.84;;;10.83;100.00
74529;BME280;63009;52.584;5.932;2022-10-14T07:49:48;101410.06;;;10.80;100.00
74529;BME280;63009;52.584;5.932;2022-10-14T07:52:14;101409.16;;;10.81;100.00
74529;BME280;63009;52.584;5.932;2022-10-14T07:54:40;101399.22;;;10.86;100.00
74529;BME280;63009;52.584;5.932;2022-10-14T07:57:05;101399.22;;;10.86;100.00
74529;BME280;63009;52.584;5.932;2022-10-14T07:59:31;101388.47;;;10.89;100.00
74529;BME280;63009;52.584;5.932;2022-10-14T08:01:56;101384.88;;;10.90;100.00
74529;BME280;63009;52.584;5.932;2022-10-14T08:04:22;101380.53;;;10.89;100.00
74529;BME280;63009;52.584;5.932;2022-10-14T08:06:49;101385.28;;;11.00;100.00
74529;BME280;63009;52.584;5.932;2022-10-14T08:09:15;101387.06;;;10.99;100.00
74529;BME280;63009;52.584;5.932;2022-10-14T08:11:42;101393.06;;;11.03;100.00
74529;BME280;63009;52.584;5.932;2022-10-14T08:14:07;101378.13;;;11.02;100.00
74529;BME280;63009;52.584;5.932;2022-10-14T08:16:34;101387.53;;;11.08;100.00
74529;BME280;63009;52.584;5.932;2022-10-14T08:19:02;101384.78;;;11.09;100.00
74529;BME280;63009;52.584;5.932;2022-10-14T08:21:28;101381.28;;;11.09;100.00
74529;BME280;63009;52.584;5.932;2022-10-14T08:23:54;101376.09;;;11.07;100.00
74529;BME280;63009;52.584;5.932;2022-10-14T08:26:28;101375.78;;;11.13;100.00
74529;BME280;63009;52.584;5.932;2022-10-14T08:28:55;101379.97;;;11.17;100.00
74529;BME280;63009;52.584;5.932;2022-10-14T08:31:20;101372.97;;;11.16;100.00
74529;BME280;63009;52.584;5.932;2022-10-14T08:33:46;101370.16;;;11.19;100.00
74529;BME280;63009;52.584;5.932;2022-10-14T08:36:12;101364.00;;;11.19;100.00
74529;BME280;63009;52.584;5.932;2022-10-14T08:38:37;101377.72;;;11.27;100.00
74529;BME280;63009;52.584;5.932;2022-10-14T08:46:33;101359.97;;;11.29;100.00
74529;BME280;63009;52.584;5.932;2022-10-14T08:49:45;101354.50;;;11.32;100.00
74529;BME280;63009;52.584;5.932;2022-10-14T08:52:14;101358.59;;;11.38;100.00
74529;BME280;63009;52.584;5.932;2022-10-14T08:54:47;101349.03;;;11.35;100.00
74529;BME280;63009;52.584;5.932;2022-10-14T08:57:17;101348.72;;;11.41;100.00
74529;BME280;63009;52.584;5.932;2022-10-14T08:59:44;101350.50;;;11.41;100.00
74529;BME280;63009;52.584;5.932;2022-10-14T09:02:28;101332.84;;;11.41;100.00
74529;BME280;63009;52.584;5.932;2022-10-14T09:04:58;101342.22;;;11.47;100.00
74529;BME280;63009;52.584;5.932;2022-10-14T09:07:24;101336.59;;;11.53;100.00
74529;BME280;63009;52.584;5.932;2022-10-14T09:10:14;101338.16;;;11.57;100.00
74529;BME280;63009;52.584;5.932;2022-10-14T09:12:42;101329.19;;;11.59;100.00
74529;BME280;63009;52.584;5.932;2022-10-14T09:20:34;101320.31;;;11.60;100.00
74529;BME280;63009;52.584;5.932;2022-10-14T09:23:08;101336.78;;;11.66;100.00
74529;BME280;63009;52.584;5.932;2022-10-14T09:25:38;101337.41;;;11.71;100.00
74529;BME280;63009;52.584;5.932;2022-10-14T09:28:04;101330.03;;;11.76;100.00
74529;BME280;63009;52.584;5.932;2022-10-14T09:30:35;101331.66;;;11.78;100.00
74529;BME280;63009;52.584;5.932;2022-10-14T09:33:01;101313.13;;;11.78;100.00
74529;BME280;63009;52.584;5.932;2022-10-14T09:35:30;101333.06;;;11.85;100.00
74529;BME280;63009;52.584;5.932;2022-10-14T09:37:56;101326.94;;;11.85;100.00
74529;BME280;63009;52.584;5.932;2022-10-14T09:40:45;101323.91;;;11.91;100.00
74529;BME280;63009;52.584;5.932;2022-10-14T09:43:18;101316.75;;;11.93;100.00
74529;BME280;63009;52.584;5.932;2022-10-14T09:46:14;101315.56;;;11.99;100.00
74529;BME280;63009;52.584;5.932;2022-10-14T09:48:47;101306.31;;;12.06;100.00
74529;BME280;63009;52.584;5.932;2022-10-14T09:53:54;101307.41;;;12.17;100.00
74529;BME280;63009;52.584;5.932;2022-10-14T09:56:37;101308.91;;;12.22;100.00
74529;BME280;63009;52.584;5.932;2022-10-14T09:59:21;101302.44;;;12.27;100.00
74529;BME280;63009;52.584;5.932;2022-10-14T10:01:49;101296.94;;;12.30;100.00
74529;BME280;63009;52.584;5.932;2022-10-14T10:06:57;101289.22;;;12.41;100.00
74529;BME280;63009;52.584;5.932;2022-10-14T10:09:23;101296.81;;;12.47;100.00
74529;BME280;63009;52.584;5.932;2022-10-14T10:11:49;101284.81;;;12.56;100.00
74529;BME280;63009;52.584;5.932;2022-10-14T10:14:16;101287.00;;;12.64;100.00
74529;BME280;63009;52.584;5.932;2022-10-14T10:16:42;101275.44;;;12.65;100.00
74529;BME280;63009;52.584;5.932;2022-10-14T10:19:30;101281.91;;;12.75;100.00
74529;BME280;63009;52.584;5.932;2022-10-14T10:27:40;101273.09;;;12.89;100.00
74529;BME280;63009;52.584;5.932;2022-10-14T10:30:27;101263.06;;;12.94;100.00
74529;BME280;63009;52.584;5.932;2022-10-14T10:38:24;101255.38;;;13.18;100.00
74529;BME280;63009;52.584;5.932;2022-10-14T10:44:20;101252.16;;;13.41;100.00
74529;BME280;63009;52.584;5.932;2022-10-14T10:52:24;101242.91;;;13.61;100.00
74529;BME280;63009;52.584;5.932;2022-10-14T10:58:00;101235.97;;;13.73;100.00
74529;BME280;63009;52.584;5.932;2022-10-14T11:00:32;101233.09;;;13.76;100.00
74529;BME280;63009;52.584;5.932;2022-10-14T11:08:47;101225.63;;;13.95;99.39
74529;BME280;63009;52.584;5.932;2022-10-14T11:11:32;101216.59;;;13.98;99.04
74529;BME280;63009;52.584;5.932;2022-10-14T11:14:54;101217.50;;;14.11;99.00
74529;BME280;63009;52.584;5.932;2022-10-14T11:20:23;101217.53;;;14.23;98.30
74529;BME280;63009;52.584;5.932;2022-10-14T11:23:12;101206.34;;;14.31;97.99
74529;BME280;63009;52.584;5.932;2022-10-14T11:25:52;101213.81;;;14.39;97.60
74529;BME280;63009;52.584;5.932;2022-10-14T11:31:23;101196.09;;;14.52;96.63
74529;BME280;63009;52.584;5.932;2022-10-14T11:34:23;101203.13;;;14.53;95.99
74529;BME280;63009;52.584;5.932;2022-10-14T11:37:25;101195.03;;;14.54;96.26
74529;BME280;63009;52.584;5.932;2022-10-14T11:45:23;101176.06;;;14.59;96.06
74529;BME280;63009;52.584;5.932;2022-10-14T11:47:52;101168.31;;;14.56;96.40
74529;BME280;63009;52.584;5.932;2022-10-14T11:50:28;101170.75;;;14.59;95.61
74529;BME280;63009;52.584;5.932;2022-10-14T11:53:09;101170.88;;;14.58;95.62
74529;BME280;63009;52.584;5.932;2022-10-14T11:55:40;101148.63;;;14.59;95.64
74529;BME280;63009;52.584;5.932;2022-10-14T11:58:16;101158.41;;;14.58;95.65
74529;BME280;63009;52.584;5.932;2022-10-14T12:00:43;101156.72;;;14.57;95.93
74529;BME280;63009;52.584;5.932;2022-10-14T12:06:01;101161.19;;;14.57;95.56
74529;BME280;63009;52.584;5.932;2022-10-14T12:08:49;101148.00;;;14.55;96.02
74529;BME280;63009;52.584;5.932;2022-10-14T12:11:27;101143.94;;;14.49;95.97
74529;BME280;63009;52.584;5.932;2022-10-14T12:14:02;101142.91;;;14.52;96.22
74529;BME280;63009;52.584;5.932;2022-10-14T12:16:30;101140.44;;;14.49;96.16
74529;BME280;63009;52.584;5.932;2022-10-14T12:18:56;101140.88;;;14.55;96.40
74529;BME280;63009;52.584;5.932;2022-10-14T12:21:31;101138.53;;;14.51;96.86
74529;BME280;63009;52.584;5.932;2022-10-14T12:24:11;101142.25;;;14.48;96.79
74529;BME280;63009;52.584;5.932;2022-10-14T12:26:54;101127.25;;;14.47;96.82
74529;BME280;63009;52.584;5.932;2022-10-14T12:29:23;101135.88;;;14.51;96.65
74529;BME280;63009;52.584;5.932;2022-10-14T12:32:06;101134.91;;;14.52;96.66
74529;BME280;63009;52.584;5.932;2022-10-14T12:34:39;101124.47;;;14.49;97.31
74529;BME280;63009;52.584;5.932;2022-10-14T12:39:50;101126.09;;;14.51;97.30
74529;BME280;63009;52.584;5.932;2022-10-14T12:42:17;101121.28;;;14.57;96.95
74529;BME280;63009;52.584;5.932;2022-10-14T12:44:50;101117.88;;;14.54;97.07
74529;BME280;63009;52.584;5.932;2022-10-14T12:47:20;101115.00;;;14.58;97.25
74529;BME280;63009;52.584;5.932;2022-10-14T12:49:51;101115.75;;;14.60;97.08
74529;BME280;63009;52.584;5.932;2022-10-14T12:52:21;101114.66;;;14.62;96.32
74529;BME280;63009;52.584;5.932;2022-10-14T12:54:48;101113.81;;;14.62;96.66
74529;BME280;63009;52.584;5.932;2022-10-14T12:57:22;101099.56;;;14.63;96.73
74529;BME280;63009;52.584;5.932;2022-10-14T12:59:50;101100.53;;;14.62;96.99
74529;BME280;63009;52.584;5.932;2022-10-14T13:02:33;101095.44;;;14.59;97.02
74529;BME280;63009;52.584;5.932;2022-10-14T13:05:30;101089.88;;;14.62;96.85
74529;BME280;63009;52.584;5.932;2022-10-14T13:11:11;101085.63;;;14.59;96.82
74529;BME280;63009;52.584;5.932;2022-10-14T13:16:06;101074.25;;;14.57;97.17
74529;BME280;63009;52.584;5.932;2022-10-14T13:21:07;101075.72;;;14.61;97.41
74529;BME280;63009;52.584;5.932;2022-10-14T13:23:45;101074.88;;;14.61;96.94
74529;BME280;63009;52.584;5.932;2022-10-14T13:26:32;101060.50;;;14.63;97.59
74529;BME280;63009;52.584;5.932;2022-10-14T13:32:11;101054.13;;;14.66;97.64
74529;BME280;63009;52.584;5.932;2022-10-14T13:40:24;101062.50;;;14.72;97.98
74529;BME280;63009;52.584;5.932;2022-10-14T13:42:55;101054.66;;;14.71;97.56
74529;BME280;63009;52.584;5.932;2022-10-14T13:45:37;101056.47;;;14.70;97.51
74529;BME280;63009;52.584;5.932;2022-10-14T13:48:03;101052.84;;;14.71;97.52
74529;BME280;63009;52.584;5.932;2022-10-14T13:50:35;101045.09;;;14.68;97.23
74529;BME280;63009;52.584;5.932;2022-10-14T13:53:04;101039.41;;;14.73;97.46
74529;BME280;63009;52.584;5.932;2022-10-14T13:55:30;101045.81;;;14.70;97.35
74529;BME280;63009;52.584;5.932;2022-10-14T13:58:10;101046.66;;;14.71;97.56
74529;BME280;63009;52.584;5.932;2022-10-14T14:00:38;101044.97;;;14.70;97.44
74529;BME280;63009;52.584;5.932;2022-10-14T14:03:23;101047.84;;;14.67;97.54
74529;BME280;63009;52.584;5.932;2022-10-14T14:05:50;101034.22;;;14.71;97.61
74529;BME280;63009;52.584;5.932;2022-10-14T14:08:28;101043.28;;;14.69;97.58
74529;BME280;63009;52.584;5.932;2022-10-14T14:10:56;101041.34;;;14.71;97.35
74529;BME280;63009;52.584;5.932;2022-10-14T14:13:26;101032.31;;;14.61;97.60
74529;BME280;63009;52.584;5.932;2022-10-14T14:15:53;101041.81;;;14.65;97.86
74529;BME280;63009;52.584;5.932;2022-10-14T14:18:49;101027.44;;;14.67;97.87
74529;BME280;63009;52.584;5.932;2022-10-14T14:21:19;101027.13;;;14.59;98.29
74529;BME280;63009;52.584;5.932;2022-10-14T14:23:53;101024.78;;;14.54;98.39
74529;BME280;63009;52.584;5.932;2022-10-14T14:26:19;101024.34;;;14.61;98.35
74529;BME280;63009;52.584;5.932;2022-10-14T14:28:48;101018.91;;;14.62;98.06
74529;BME280;63009;52.584;5.932;2022-10-14T14:31:16;101010.06;;;14.62;97.98
74529;BME280;63009;52.584;5.932;2022-10-14T14:33:44;101010.31;;;14.59;98.28
74529;BME280;63009;52.584;5.932;2022-10-14T14:36:11;101004.56;;;14.65;98.27